Time;durP1;ratioP1;P1;durP2;ratioP2;P2;SDS_P1;SDS_P2;PMS_P1;PMS_P2;Temp;Humidity;BMP_temperature;BMP_pressure;BME280_temperature;BME280_humidity;BME280_pressure;Samples;Min_cycle;Max_cycle;Signal;HPM_P1;HPM_P2
2021/09/13 04:31:16;;;;;;;4.80;4.43;;;13.80;99.90;;;;;;5812820;23;20503;-74
2021/09/13 04:33:42;;;;;;;5.10;4.60;;;13.80;99.90;;;;;;5010842;28;20938;-79
2021/09/13 04:36:07;;;;;;;6.53;5.40;;;13.80;99.90;;;;;;5020836;28;20809;-79
2021/09/13 04:38:33;;;;;;;7.80;5.00;;;13.80;99.90;;;;;;5045784;28;20193;-79
2021/09/13 04:40:58;;;;;;;7.03;5.20;;;13.80;99.90;;;;;;5054299;28;20197;-80
2021/09/13 04:43:24;;;;;;;5.60;5.00;;;13.80;99.90;;;;;;5036118;28;20174;-79
2021/09/13 04:45:50;;;;;;;10.93;4.93;;;13.80;99.90;;;;;;5034377;28;20606;-78
2021/09/13 04:48:15;;;;;;;6.17;4.97;;;13.80;99.90;;;;;;5016664;28;20201;-79
2021/09/13 04:50:41;;;;;;;7.50;5.87;;;13.80;99.90;;;;;;5034516;28;20166;-79
2021/09/13 04:53:06;;;;;;;7.07;4.87;;;13.80;99.90;;;;;;5033955;28;20174;-77
2021/09/13 04:55:34;;;;;;;5.17;4.77;;;13.80;99.90;;;;;;5033917;28;20184;-79
2021/09/13 04:58:00;;;;;;;5.27;4.87;;;13.80;99.90;;;;;;5054108;28;20193;-81
2021/09/13 05:00:25;;;;;;;5.23;4.83;;;13.80;99.90;;;;;;5056279;28;20408;-78
2021/09/13 05:02:51;;;;;;;6.93;5.80;;;13.70;99.90;;;;;;5052518;28;20173;-78
2021/09/13 05:05:16;;;;;;;7.87;6.10;;;13.70;99.90;;;;;;5053929;28;20237;-78
2021/09/13 05:07:42;;;;;;;8.03;4.83;;;13.70;99.90;;;;;;5053777;28;20187;-77
2021/09/13 05:10:08;;;;;;;6.00;4.93;;;13.80;99.90;;;;;;5053418;28;20554;-78
2021/09/13 05:12:33;;;;;;;6.93;5.07;;;13.80;99.90;;;;;;5053671;28;20196;-78
2021/09/13 05:14:59;;;;;;;8.00;5.30;;;13.80;99.90;;;;;;5053240;28;20412;-78
2021/09/13 05:17:24;;;;;;;7.60;5.03;;;13.80;99.90;;;;;;5053727;28;20260;-78
2021/09/13 05:19:50;;;;;;;6.63;4.97;;;13.80;99.90;;;;;;5053467;28;20272;-78
2021/09/13 05:22:16;;;;;;;8.10;4.10;;;13.90;99.90;;;;;;5053406;28;20604;-78
2021/09/13 05:24:41;;;;;;;5.30;4.90;;;13.90;99.90;;;;;;5053239;28;20543;-78
2021/09/13 05:27:07;;;;;;;5.77;5.20;;;13.90;99.90;;;;;;5053209;28;20820;-77
2021/09/13 05:29:33;;;;;;;8.53;4.80;;;13.80;99.90;;;;;;5053221;28;20173;-77
2021/09/13 05:31:59;;;;;;;5.20;4.80;;;13.90;99.90;;;;;;5035849;28;20242;-78
2021/09/13 05:34:24;;;;;;;4.50;4.20;;;13.90;99.90;;;;;;5033072;28;20776;-78
2021/09/13 05:36:50;;;;;;;6.57;4.87;;;13.90;99.90;;;;;;5015413;28;20189;-79
2021/09/13 05:39:15;;;;;;;7.83;5.07;;;14.00;99.90;;;;;;5033087;28;20417;-78
2021/09/13 05:41:42;;;;;;;9.83;4.63;;;14.00;99.90;;;;;;5033086;28;20208;-77
2021/09/13 05:44:07;;;;;;;8.60;5.77;;;14.10;99.90;;;;;;5032836;28;20167;-78
2021/09/13 05:46:33;;;;;;;5.47;4.90;;;14.20;99.90;;;;;;5015343;28;20473;-78
2021/09/13 05:48:59;;;;;;;9.60;5.43;;;14.30;99.90;;;;;;5032935;28;20610;-78
2021/09/13 05:51:25;;;;;;;7.27;6.00;;;14.30;99.90;;;;;;5032855;28;20690;-78
2021/09/13 05:53:50;;;;;;;5.70;4.43;;;14.40;99.90;;;;;;5032641;28;20413;-78
2021/09/13 05:56:15;;;;;;;11.43;6.10;;;14.50;99.90;;;;;;5032779;28;20181;-78
2021/09/13 05:58:41;;;;;;;7.80;6.07;;;14.50;99.90;;;;;;5032920;28;20185;-78
2021/09/13 06:01:07;;;;;;;6.03;5.43;;;14.50;99.90;;;;;;5032536;28;20240;-78
2021/09/13 06:03:33;;;;;;;6.13;5.53;;;14.60;99.90;;;;;;5032527;28;20175;-78
2021/09/13 06:05:58;;;;;;;6.07;5.47;;;14.70;99.90;;;;;;5032380;28;20483;-78
2021/09/13 06:08:24;;;;;;;7.17;6.47;;;14.80;99.90;;;;;;5032735;28;20178;-78
2021/09/13 06:10:49;;;;;;;13.33;5.80;;;14.80;99.90;;;;;;5032617;28;20205;-77
2021/09/13 06:13:15;;;;;;;7.37;6.10;;;14.90;99.90;;;;;;5032406;28;20197;-78
2021/09/13 06:15:40;;;;;;;6.80;6.20;;;15.00;99.90;;;;;;5032547;28;20687;-78
2021/09/13 06:18:06;;;;;;;6.27;5.60;;;15.20;99.90;;;;;;5032414;28;20663;-78
2021/09/13 06:20:32;;;;;;;6.33;5.80;;;15.20;99.90;;;;;;5032506;28;20174;-78
2021/09/13 06:22:57;;;;;;;7.30;6.60;;;15.20;99.90;;;;;;5032209;28;20184;-78
2021/09/13 06:25:23;;;;;;;6.80;5.67;;;15.30;99.90;;;;;;5032108;28;20328;-78
2021/09/13 06:27:49;;;;;;;6.90;6.13;;;15.30;99.90;;;;;;5032180;28;20177;-78
2021/09/13 06:30:14;;;;;;;7.43;6.57;;;15.30;99.90;;;;;;5034699;28;20166;-78
2021/09/13 06:32:40;;;;;;;6.03;5.47;;;15.60;99.90;;;;;;5051916;28;20662;-78
2021/09/13 06:35:06;;;;;;;8.63;5.40;;;16.00;99.90;;;;;;5051758;28;20189;-79
2021/09/13 06:37:32;;;;;;;9.50;5.83;;;16.70;99.90;;;;;;5052077;28;20641;-78
2021/09/13 06:39:58;;;;;;;7.30;5.40;;;17.40;99.90;;;;;;5051927;28;20446;-78
2021/09/13 06:42:25;;;;;;;7.13;5.40;;;18.10;99.90;;;;;;5051899;28;20185;-78
2021/09/13 06:44:51;;;;;;;8.10;6.00;;;18.80;99.90;;;;;;5051939;28;20411;-75
2021/09/13 06:49:55;;;;;;;6.47;5.87;;;19.60;99.90;;;;;;5051916;28;20272;-75
2021/09/13 06:52:20;;;;;;;10.07;6.00;;;19.70;99.90;;;;;;5053031;28;20504;-75
2021/09/13 06:54:46;;;;;;;12.80;5.90;;;20.00;99.90;;;;;;5051812;28;20641;-75
2021/09/13 06:57:11;;;;;;;6.77;6.17;;;20.30;99.90;;;;;;5051752;28;20173;-75
2021/09/13 06:59:37;;;;;;;14.07;6.30;;;20.50;99.90;;;;;;5051781;28;20275;-76
2021/09/13 07:02:03;;;;;;;11.27;5.30;;;20.60;99.90;;;;;;5051471;28;20357;-74
2021/09/13 07:04:30;;;;;;;5.97;5.43;;;20.80;99.90;;;;;;5033525;28;20173;-73
2021/09/13 07:06:55;;;;;;;19.00;6.53;;;21.10;99.90;;;;;;5051451;28;20451;-74
2021/09/13 07:09:21;;;;;;;9.37;6.00;;;21.40;99.90;;;;;;5051717;28;20419;-75
2021/09/13 07:11:46;;;;;;;11.73;5.73;;;21.60;99.90;;;;;;5051442;28;20240;-75
2021/09/13 07:14:12;;;;;;;6.90;5.37;;;21.80;99.90;;;;;;5051411;28;20656;-75
2021/09/13 07:16:37;;;;;;;6.70;5.63;;;21.80;99.90;;;;;;5051458;28;20248;-73
2021/09/13 07:19:03;;;;;;;7.30;5.50;;;22.10;99.90;;;;;;5051222;28;20330;-73
2021/09/13 07:21:29;;;;;;;8.27;5.47;;;22.20;99.90;;;;;;5051288;28;20185;-73
2021/09/13 07:23:55;;;;;;;8.73;4.90;;;22.20;99.90;;;;;;5051003;28;20173;-74
2021/09/13 07:26:20;;;;;;;11.10;5.30;;;22.30;99.90;;;;;;5051120;28;20208;-75
2021/09/13 07:28:46;;;;;;;7.93;5.70;;;22.50;99.90;;;;;;5051295;28;21103;-75
2021/09/13 07:31:11;;;;;;;4.97;4.50;;;22.60;99.90;;;;;;5040639;28;20221;-75
2021/09/13 07:33:37;;;;;;;5.63;4.90;;;22.70;99.90;;;;;;5031204;28;20540;-75
2021/09/13 07:36:03;;;;;;;4.73;4.40;;;22.70;99.90;;;;;;5031255;28;20181;-74
2021/09/13 07:38:28;;;;;;;5.80;5.07;;;22.90;99.90;;;;;;5031619;28;20256;-75
2021/09/13 07:40:54;;;;;;;5.37;4.97;;;23.00;99.90;;;;;;5031093;28;20197;-75
2021/09/13 07:43:19;;;;;;;22.00;5.13;;;23.10;99.90;;;;;;5031576;28;20702;-75
2021/09/13 07:45:45;;;;;;;9.40;5.10;;;23.30;99.90;;;;;;5031012;28;20690;-75
2021/09/13 07:48:11;;;;;;;7.23;5.00;;;23.40;99.90;;;;;;5031534;28;20543;-75
2021/09/13 07:50:36;;;;;;;16.13;4.97;;;23.60;99.90;;;;;;5031144;28;20436;-75
2021/09/13 07:53:02;;;;;;;8.83;5.03;;;23.90;99.90;;;;;;5031079;28;20177;-74
2021/09/13 07:55:28;;;;;;;5.30;4.70;;;24.30;99.90;;;;;;5031134;28;20178;-74
2021/09/13 07:57:53;;;;;;;8.27;5.53;;;24.70;99.90;;;;;;5031166;28;20466;-74
2021/09/13 08:00:19;;;;;;;14.73;6.30;;;24.80;99.90;;;;;;5031237;28;20253;-75
2021/09/13 08:02:44;;;;;;;7.47;5.00;;;24.50;99.90;;;;;;5031256;28;20190;-75
2021/09/13 08:05:10;;;;;;;8.63;4.87;;;24.30;99.90;;;;;;5030770;28;20201;-74
2021/09/13 08:07:36;;;;;;;10.50;5.13;;;24.30;99.90;;;;;;5031262;28;20298;-74
2021/09/13 08:10:03;;;;;;;8.57;5.03;;;24.40;99.90;;;;;;5027815;28;20773;-74
2021/09/13 08:12:28;;;;;;;7.00;4.80;;;24.80;99.90;;;;;;5013120;28;20201;-75
2021/09/13 08:14:54;;;;;;;11.10;4.10;;;24.60;99.90;;;;;;5030828;28;20416;-75
2021/09/13 08:17:20;;;;;;;11.03;4.53;;;24.70;99.90;;;;;;5031077;28;20174;-76
2021/09/13 08:19:45;;;;;;;10.70;5.17;;;25.10;99.90;;;;;;5030879;28;20193;-75
2021/09/13 08:22:11;;;;;;;9.23;4.83;;;25.40;99.90;;;;;;5012835;28;20194;-75
2021/09/13 08:24:37;;;;;;;5.50;4.00;;;25.80;99.90;;;;;;5030646;28;20178;-75
2021/09/13 08:27:03;;;;;;;4.10;3.70;;;25.70;99.90;;;;;;5030598;28;20210;-74
2021/09/13 08:29:28;;;;;;;18.50;4.73;;;25.80;99.90;;;;;;5030792;28;20178;-75
2021/09/13 08:31:56;;;;;;;9.53;3.80;;;26.20;99.90;;;;;;5030278;28;20237;-75
2021/09/13 08:34:22;;;;;;;4.33;3.60;;;26.50;99.90;;;;;;5030517;28;20224;-74
2021/09/13 08:36:47;;;;;;;4.33;3.43;;;26.70;99.90;;;;;;5031462;28;20467;-74
2021/09/13 08:39:14;;;;;;;4.30;3.90;;;26.50;99.90;;;;;;5034109;28;20412;-74
2021/09/13 08:41:41;;;;;;;5.93;4.47;;;26.30;99.90;;;;;;5034223;28;20679;-74
2021/09/13 08:44:08;;;;;;;6.23;3.90;;;26.40;99.90;;;;;;5033813;28;20412;-74
2021/09/13 08:46:40;;;;;;;7.00;3.80;;;26.40;99.90;;;;;;5034147;28;20464;-73
2021/09/13 08:49:09;;;;;;;5.40;3.87;;;26.50;99.90;;;;;;5033898;28;20416;-74
2021/09/13 08:51:34;;;;;;;9.00;3.47;;;26.60;99.90;;;;;;5033931;28;20863;-75
2021/09/13 08:54:05;;;;;;;6.60;3.40;;;26.60;99.90;;;;;;5033577;28;20496;-74
2021/09/13 08:56:42;;;;;;;8.03;3.07;;;26.80;99.90;;;;;;5034100;28;20174;-75
2021/09/13 08:59:16;;;;;;;3.13;2.93;;;26.90;99.90;;;;;;5033766;28;20425;-74
2021/09/13 09:01:43;;;;;;;2.90;2.60;;;27.10;99.90;;;;;;5033701;28;20448;-74
2021/09/13 09:04:10;;;;;;;3.10;2.80;;;27.30;99.90;;;;;;5033424;28;20412;-75
2021/09/13 09:06:38;;;;;;;6.07;3.20;;;27.40;99.90;;;;;;5033836;28;20569;-73
2021/09/13 09:09:09;;;;;;;5.03;3.30;;;27.60;99.90;;;;;;5033613;28;20642;-74
2021/09/13 09:11:59;;;;;;;3.60;3.07;;;27.60;99.90;;;;;;5033615;28;20935;-74
2021/09/13 09:14:28;;;;;;;5.80;3.00;;;27.60;99.90;;;;;;5033462;28;20428;-73
2021/09/13 09:16:55;;;;;;;4.40;3.17;;;27.30;99.90;;;;;;5033369;28;20424;-74
2021/09/13 09:19:21;;;;;;;6.00;3.20;;;27.80;99.90;;;;;;5033624;28;20740;-74
2021/09/13 09:21:47;;;;;;;5.97;3.23;;;28.30;99.90;;;;;;5033073;28;20436;-73
2021/09/13 09:24:12;;;;;;;3.30;3.00;;;28.40;99.90;;;;;;5033106;28;20189;-73
2021/09/13 09:26:38;;;;;;;3.57;3.20;;;28.40;99.90;;;;;;5028133;28;20210;-75
2021/09/13 09:29:03;;;;;;;3.90;3.37;;;28.10;99.90;;;;;;5032467;28;20264;-74
2021/09/13 09:31:40;;;;;;;4.00;3.60;;;27.90;99.90;;;;;;5045454;28;20237;-74
2021/09/13 09:34:19;;;;;;;3.60;2.40;;;28.00;99.90;;;;;;5041057;28;20182;-73
2021/09/13 09:37:00;;;;;;;4.43;4.03;;;28.30;99.90;;;;;;5032838;28;20500;-74
2021/09/13 09:39:52;;;;;;;4.77;3.20;;;28.80;99.90;;;;;;5033042;28;20421;-74
2021/09/13 09:42:31;;;;;;;7.40;4.10;;;28.90;99.90;;;;;;5023012;28;20452;-73
2021/09/13 09:44:59;;;;;;;3.47;3.17;;;29.10;99.90;;;;;;5033259;28;20416;-74
2021/09/13 09:47:25;;;;;;;5.20;3.13;;;29.10;99.90;;;;;;5016085;28;20431;-74
2021/09/13 09:49:53;;;;;;;4.90;4.00;;;29.20;99.90;;;;;;5033216;28;20405;-74
2021/09/13 09:52:31;;;;;;;4.23;3.83;;;29.30;99.90;;;;;;5033528;28;20616;-74
2021/09/13 09:55:19;;;;;;;4.53;4.23;;;29.30;99.90;;;;;;5032616;28;21007;-75
2021/09/13 09:58:07;;;;;;;4.03;3.60;;;29.20;99.90;;;;;;5032970;28;20524;-75
2021/09/13 10:00:34;;;;;;;4.40;3.30;;;29.40;99.90;;;;;;5032917;28;20439;-74
2021/09/13 10:02:59;;;;;;;4.70;3.30;;;29.50;99.90;;;;;;5032545;28;20508;-74
2021/09/13 10:05:27;;;;;;;4.37;3.60;;;29.50;99.90;;;;;;5032799;28;20558;-74
2021/09/13 10:07:54;;;;;;;5.03;3.67;;;29.40;99.90;;;;;;5032611;28;20174;-74
2021/09/13 10:10:21;;;;;;;9.03;3.80;;;29.50;99.90;;;;;;5032714;28;20897;-74
2021/09/13 10:12:48;;;;;;;7.40;3.80;;;29.80;99.90;;;;;;5032519;28;20472;-74
2021/09/13 10:15:14;;;;;;;4.50;3.80;;;29.40;99.90;;;;;;5032381;28;20421;-74
2021/09/13 10:17:40;;;;;;;4.33;4.03;;;29.20;99.90;;;;;;5032728;28;20417;-74
2021/09/13 10:20:07;;;;;;;4.17;3.87;;;29.20;99.90;;;;;;5032371;28;20793;-74
2021/09/13 10:22:41;;;;;;;8.53;4.00;;;29.30;99.90;;;;;;5031947;28;20197;-74
2021/09/13 10:25:08;;;;;;;9.17;3.90;;;29.50;99.90;;;;;;5030501;28;20452;-74
2021/09/13 10:27:39;;;;;;;4.37;4.00;;;29.60;99.90;;;;;;5031580;28;20408;-74
2021/09/13 10:30:16;;;;;;;5.50;4.77;;;29.60;99.90;;;;;;5032153;28;20417;-74
2021/09/13 10:32:43;;;;;;;4.40;3.23;;;29.80;99.90;;;;;;5051600;28;20451;-74
2021/09/13 10:35:11;;;;;;;4.33;3.30;;;30.00;99.90;;;;;;5051505;28;20920;-74
2021/09/13 10:37:48;;;;;;;4.27;3.87;;;30.20;99.90;;;;;;5051793;28;20980;-74
2021/09/13 10:40:31;;;;;;;3.77;3.33;;;30.40;99.90;;;;;;5051074;28;20447;-74
2021/09/13 10:43:20;;;;;;;3.60;3.40;;;30.50;99.90;;;;;;5033296;28;20416;-74
2021/09/13 10:45:46;;;;;;;5.67;3.03;;;30.70;99.90;;;;;;5050475;28;20505;-74
2021/09/13 10:48:20;;;;;;;3.50;3.30;;;30.70;99.90;;;;;;5051832;28;20416;-74
2021/09/13 10:50:56;;;;;;;7.47;3.93;;;30.70;99.90;;;;;;5051608;28;20192;-74
2021/09/13 10:53:21;;;;;;;4.33;4.03;;;30.20;99.90;;;;;;5051804;28;20438;-73
2021/09/13 10:55:49;;;;;;;4.00;3.57;;;30.20;99.90;;;;;;5051273;28;20424;-73
2021/09/13 10:58:17;;;;;;;5.00;4.70;;;30.20;99.90;;;;;;5051873;28;20209;-74
2021/09/13 11:00:45;;;;;;;5.00;3.50;;;30.00;99.90;;;;;;5050160;28;20469;-73
2021/09/13 11:03:28;;;;;;;4.23;3.20;;;30.00;99.90;;;;;;5050300;28;20428;-74
2021/09/13 11:06:05;;;;;;;3.53;3.23;;;30.20;99.90;;;;;;5034238;28;20468;-73
2021/09/13 11:08:36;;;;;;;6.30;3.17;;;30.40;99.90;;;;;;5031785;28;20412;-73
2021/09/13 11:11:01;;;;;;;5.37;3.73;;;30.40;99.90;;;;;;5031350;28;20451;-73
2021/09/13 11:13:27;;;;;;;5.20;3.67;;;30.40;99.90;;;;;;5030896;28;20417;-74
2021/09/13 11:15:53;;;;;;;7.13;4.13;;;30.30;99.90;;;;;;5031336;28;20180;-74
2021/09/13 11:18:33;;;;;;;4.73;3.43;;;30.20;99.90;;;;;;5031329;28;20184;-73
2021/09/13 11:21:19;;;;;;;4.03;3.63;;;30.10;99.90;;;;;;5031210;28;20205;-73
2021/09/13 11:23:50;;;;;;;4.50;4.10;;;29.40;99.90;;;;;;5032875;28;20420;-78
2021/09/13 11:26:48;;;;;;;4.03;3.83;;;29.30;99.90;;;;;;5031732;28;20472;-77
2021/09/13 11:29:31;;;;;;;3.47;3.27;;;29.10;99.90;;;;;;5031357;28;20417;-76
2021/09/13 11:32:07;;;;;;;4.57;4.17;;;28.90;99.90;;;;;;5047690;28;20451;-77
2021/09/13 11:34:35;;;;;;;7.07;4.93;;;28.70;99.90;;;;;;5051106;28;20415;-77
2021/09/13 11:37:02;;;;;;;4.33;3.97;;;28.70;99.90;;;;;;5051177;28;20416;-77
2021/09/13 11:39:42;;;;;;;4.07;3.40;;;29.10;99.90;;;;;;5051164;28;20412;-77
2021/09/13 11:42:11;;;;;;;4.70;4.00;;;29.20;99.90;;;;;;5050951;28;20443;-77
2021/09/13 11:44:46;;;;;;;2.70;2.50;;;28.90;99.90;;;;;;5051097;28;20411;-77
2021/09/13 11:47:15;;;;;;;3.53;3.23;;;28.20;99.90;;;;;;5051198;28;20403;-77
2021/09/13 11:49:43;;;;;;;8.77;4.13;;;27.90;99.90;;;;;;5051045;28;20497;-77
2021/09/13 11:52:16;;;;;;;4.00;3.47;;;27.60;99.90;;;;;;5050743;28;20510;-77
2021/09/13 11:55:08;;;;;;;7.20;3.93;;;27.50;99.90;;;;;;5050942;28;20404;-76
2021/09/13 11:57:43;;;;;;;4.07;3.77;;;27.40;99.90;;;;;;5050640;28;20434;-78
2021/09/13 12:00:35;;;;;;;4.03;3.73;;;27.30;99.90;;;;;;5050005;28;20415;-76
2021/09/13 12:03:03;;;;;;;4.07;3.80;;;27.30;99.90;;;;;;5011885;28;20827;-77
2021/09/13 12:05:33;;;;;;;5.83;3.67;;;27.60;99.90;;;;;;5029418;28;20491;-76
2021/09/13 12:08:00;;;;;;;4.43;4.10;;;27.70;99.90;;;;;;5030555;28;20785;-75
2021/09/13 12:10:28;;;;;;;4.70;3.77;;;27.60;99.90;;;;;;5029868;28;20404;-78
2021/09/13 12:12:57;;;;;;;3.63;3.30;;;27.50;99.90;;;;;;5034422;28;20435;-77
2021/09/13 12:15:30;;;;;;;5.43;3.77;;;27.40;99.90;;;;;;5034445;28;20508;-76
2021/09/13 12:17:55;;;;;;;4.10;3.80;;;27.60;99.90;;;;;;5033615;28;20420;-76
2021/09/13 12:20:32;;;;;;;6.47;4.60;;;27.70;99.90;;;;;;5034296;28;20423;-76
2021/09/13 12:23:06;;;;;;;5.10;4.00;;;27.80;99.90;;;;;;5034119;28;20247;-77
2021/09/13 12:25:53;;;;;;;4.00;3.80;;;27.70;99.90;;;;;;5015622;28;20464;-76
2021/09/13 12:28:26;;;;;;;3.90;3.60;;;27.80;99.90;;;;;;5032118;28;20905;-76
2021/09/13 12:30:58;;;;;;;4.10;3.70;;;27.80;99.90;;;;;;5034791;28;20454;-77
2021/09/13 12:33:36;;;;;;;6.43;3.70;;;27.60;99.90;;;;;;5033388;28;20421;-76
2021/09/13 12:36:18;;;;;;;4.47;4.17;;;27.40;99.90;;;;;;5013259;28;20416;-77
2021/09/13 12:38:49;;;;;;;3.90;3.53;;;27.50;99.90;;;;;;5032524;28;20458;-77
2021/09/13 12:41:15;;;;;;;4.03;3.73;;;27.50;99.90;;;;;;5033105;28;20432;-77
2021/09/13 12:43:47;;;;;;;4.20;3.80;;;27.60;99.90;;;;;;5033195;28;20423;-77
2021/09/13 12:46:17;;;;;;;8.63;3.90;;;27.70;99.90;;;;;;5032694;28;20448;-77
2021/09/13 12:48:46;;;;;;;3.63;3.33;;;27.60;99.90;;;;;;5032607;28;20757;-77
2021/09/13 12:51:22;;;;;;;7.40;4.47;;;27.60;99.90;;;;;;5032451;28;21020;-74
2021/09/13 12:53:59;;;;;;;6.10;4.20;;;27.40;99.90;;;;;;5030435;28;20413;-74
2021/09/13 12:56:25;;;;;;;6.83;4.60;;;27.20;99.90;;;;;;5033016;28;20511;-75
2021/09/13 12:58:54;;;;;;;6.57;3.90;;;26.80;99.90;;;;;;5032786;28;20423;-74
2021/09/13 13:01:32;;;;;;;3.10;2.87;;;26.80;99.90;;;;;;5033900;28;20483;-72
2021/09/13 13:04:03;;;;;;;3.40;3.20;;;27.00;99.90;;;;;;5033734;28;20467;-72
2021/09/13 13:06:28;;;;;;;4.80;4.30;;;27.10;99.90;;;;;;5033940;28;21038;-74
2021/09/13 13:08:54;;;;;;;4.20;3.80;;;26.70;99.90;;;;;;5033681;28;20417;-74
2021/09/13 13:11:20;;;;;;;4.33;3.90;;;26.40;99.90;;;;;;5033811;28;20663;-73
2021/09/13 13:13:45;;;;;;;4.20;3.47;;;26.10;99.90;;;;;;5034553;28;20270;-73
2021/09/13 13:16:11;;;;;;;4.53;4.13;;;26.10;99.90;;;;;;5034324;28;20178;-74
2021/09/13 13:18:39;;;;;;;4.17;3.87;;;26.00;99.90;;;;;;5033831;28;20253;-74
2021/09/13 13:21:04;;;;;;;2.73;2.53;;;26.00;99.90;;;;;;5033620;28;20206;-74
2021/09/13 13:23:30;;;;;;;3.50;3.30;;;26.00;99.90;;;;;;5032912;28;20983;-73
2021/09/13 13:25:55;;;;;;;3.80;3.50;;;26.20;99.90;;;;;;5033291;28;20263;-75
2021/09/13 13:28:22;;;;;;;3.17;2.87;;;26.30;99.90;;;;;;5015783;28;20170;-74
2021/09/13 13:30:48;;;;;;;4.10;3.80;;;26.40;99.90;;;;;;5040479;28;20204;-74
2021/09/13 13:33:14;;;;;;;3.17;2.87;;;26.40;99.90;;;;;;5053390;28;20400;-74
2021/09/13 13:35:41;;;;;;;3.97;3.40;;;26.50;99.90;;;;;;5035251;28;20417;-73
2021/09/13 13:38:07;;;;;;;3.50;3.30;;;26.50;99.90;;;;;;5033909;28;20182;-74
2021/09/13 13:40:34;;;;;;;3.87;3.67;;;26.40;99.90;;;;;;5015982;28;20430;-74
2021/09/13 13:43:00;;;;;;;4.13;3.27;;;26.40;99.90;;;;;;5033476;28;20424;-74
2021/09/13 13:45:27;;;;;;;3.57;3.37;;;26.40;99.90;;;;;;5032703;28;20852;-72
2021/09/13 13:47:53;;;;;;;4.07;3.67;;;26.40;99.90;;;;;;5033070;28;20772;-73
2021/09/13 13:50:20;;;;;;;3.63;3.30;;;26.20;99.90;;;;;;5033190;28;20409;-73
2021/09/13 13:52:47;;;;;;;3.07;2.77;;;26.20;99.90;;;;;;5032916;28;20429;-74
2021/09/13 13:55:13;;;;;;;3.30;2.90;;;26.30;99.90;;;;;;5032845;28;20441;-74
2021/09/13 13:57:39;;;;;;;3.70;3.40;;;26.30;99.90;;;;;;5033191;28;20409;-75
2021/09/13 14:00:07;;;;;;;3.97;3.07;;;26.30;99.90;;;;;;5015564;28;20439;-74
2021/09/13 14:02:33;;;;;;;8.03;3.70;;;26.30;99.90;;;;;;5033157;28;20194;-75
2021/09/13 14:04:58;;;;;;;2.93;2.73;;;26.30;99.90;;;;;;5032650;28;20924;-75
2021/09/13 14:07:24;;;;;;;3.33;3.13;;;26.30;99.90;;;;;;5033258;28;20166;-75
2021/09/13 14:09:49;;;;;;;3.40;3.20;;;26.30;99.90;;;;;;5032896;28;20681;-74
2021/09/13 14:12:15;;;;;;;2.87;2.40;;;26.40;99.90;;;;;;5032879;28;20198;-74
2021/09/13 14:14:41;;;;;;;3.67;2.80;;;26.40;99.90;;;;;;5032743;28;20170;-74
2021/09/13 14:17:06;;;;;;;3.60;3.30;;;26.40;99.90;;;;;;5032405;28;20181;-74
2021/09/13 14:19:32;;;;;;;3.50;3.30;;;26.20;99.90;;;;;;5032504;28;20277;-75
2021/09/13 14:21:57;;;;;;;3.57;3.07;;;26.20;99.90;;;;;;5032171;28;20209;-75
2021/09/13 14:24:23;;;;;;;3.27;3.03;;;26.00;99.90;;;;;;5032140;28;20182;-75
2021/09/13 14:26:48;;;;;;;4.00;3.60;;;26.00;99.90;;;;;;5031779;28;20202;-75
2021/09/13 14:29:14;;;;;;;3.50;2.63;;;25.90;99.90;;;;;;5033114;28;20177;-74
2021/09/13 14:31:40;;;;;;;3.97;3.20;;;25.90;99.90;;;;;;5032047;28;20217;-74
2021/09/13 14:34:05;;;;;;;2.87;2.67;;;25.80;99.90;;;;;;5018918;28;20709;-75
2021/09/13 14:36:31;;;;;;;4.30;3.00;;;25.80;99.90;;;;;;5031894;28;20421;-76
2021/09/13 14:38:56;;;;;;;11.53;3.13;;;25.70;99.90;;;;;;5031923;28;20177;-76
2021/09/13 14:41:22;;;;;;;4.80;2.73;;;25.70;99.90;;;;;;5031773;28;20198;-76
2021/09/13 14:43:47;;;;;;;5.00;2.57;;;25.70;99.90;;;;;;5014318;28;20178;-75
2021/09/13 14:46:13;;;;;;;7.93;3.03;;;25.70;99.90;;;;;;5031391;28;20292;-77
2021/09/13 14:48:38;;;;;;;3.60;3.30;;;25.60;99.90;;;;;;5031839;28;20276;-76
2021/09/13 14:51:04;;;;;;;2.97;2.53;;;25.60;99.90;;;;;;5031573;28;21071;-75
2021/09/13 14:53:29;;;;;;;3.30;3.10;;;25.50;99.90;;;;;;5031510;28;20177;-75
2021/09/13 14:55:55;;;;;;;3.17;2.97;;;25.60;99.90;;;;;;5031363;28;20666;-74
2021/09/13 14:58:20;;;;;;;3.73;3.43;;;25.50;99.90;;;;;;5031342;28;20197;-74
2021/09/13 15:00:46;;;;;;;6.93;3.10;;;25.50;99.90;;;;;;5031286;28;20182;-75
2021/09/13 15:03:11;;;;;;;3.00;2.80;;;25.50;99.90;;;;;;5031432;28;20185;-74
2021/09/13 15:05:37;;;;;;;2.70;2.60;;;25.50;99.90;;;;;;5031606;28;20256;-75
2021/09/13 15:08:03;;;;;;;3.57;3.30;;;25.50;99.90;;;;;;5031100;28;20252;-74
2021/09/13 15:10:28;;;;;;;3.40;3.10;;;25.50;99.90;;;;;;5031496;28;20174;-75
2021/09/13 15:12:54;;;;;;;3.13;2.80;;;25.40;99.90;;;;;;5030189;28;20220;-74
2021/09/13 15:15:19;;;;;;;2.83;2.63;;;25.40;99.90;;;;;;5030407;28;20173;-74
2021/09/13 15:17:45;;;;;;;2.90;2.70;;;25.30;99.90;;;;;;5031493;28;20184;-74
2021/09/13 15:20:12;;;;;;;4.50;2.67;;;25.20;99.90;;;;;;5031587;28;20240;-75
2021/09/13 15:22:39;;;;;;;3.07;2.87;;;25.20;99.90;;;;;;5031285;28;20586;-74
2021/09/13 15:25:06;;;;;;;3.30;3.00;;;25.20;99.90;;;;;;5031042;28;20603;-74
2021/09/13 15:27:32;;;;;;;6.23;2.77;;;25.10;99.90;;;;;;5031438;28;20412;-74
2021/09/13 15:29:57;;;;;;;3.67;3.17;;;25.10;99.90;;;;;;5031394;28;20507;-75
2021/09/13 15:32:22;;;;;;;4.57;2.93;;;25.10;99.90;;;;;;5051107;28;20235;-74
2021/09/13 15:34:48;;;;;;;3.10;2.90;;;25.10;99.90;;;;;;5050939;28;20177;-74
2021/09/13 15:37:14;;;;;;;3.43;3.23;;;25.10;99.90;;;;;;5051213;28;20177;-74
2021/09/13 15:39:39;;;;;;;5.43;4.93;;;25.10;99.90;;;;;;5051169;28;20204;-75
2021/09/13 15:42:05;;;;;;;3.10;2.90;;;25.10;99.90;;;;;;5051064;28;20220;-74
2021/09/13 15:44:30;;;;;;;2.93;2.73;;;25.00;99.90;;;;;;5051121;28;20701;-74
2021/09/13 15:46:59;;;;;;;3.70;3.10;;;25.00;99.90;;;;;;5053786;28;20209;-74
2021/09/13 15:49:25;;;;;;;3.87;3.43;;;24.90;99.90;;;;;;5055407;28;20184;-74
2021/09/13 15:51:51;;;;;;;5.87;4.07;;;24.80;99.90;;;;;;5054888;28;20449;-74
2021/09/13 15:54:17;;;;;;;3.83;3.37;;;24.80;99.90;;;;;;5055014;28;20535;-75
2021/09/13 15:56:43;;;;;;;4.60;3.27;;;24.70;99.90;;;;;;5055293;28;20404;-74
2021/09/13 15:59:09;;;;;;;4.00;3.70;;;24.70;99.90;;;;;;5043483;28;20186;-74
2021/09/13 16:01:34;;;;;;;3.87;3.57;;;24.60;99.90;;;;;;5034387;28;20198;-74
2021/09/13 16:04:01;;;;;;;6.60;3.87;;;24.60;99.90;;;;;;5035118;28;20416;-74
2021/09/13 16:06:26;;;;;;;3.33;3.10;;;24.50;99.90;;;;;;5034454;28;20201;-75
2021/09/13 16:08:52;;;;;;;4.10;2.83;;;24.60;99.90;;;;;;5034874;28;20790;-75
2021/09/13 16:11:17;;;;;;;3.17;2.80;;;24.50;99.90;;;;;;5034940;28;20202;-75
2021/09/13 16:13:43;;;;;;;3.03;2.83;;;24.50;99.90;;;;;;5034938;28;20178;-74
2021/09/13 16:16:08;;;;;;;3.20;3.00;;;24.40;99.90;;;;;;5034651;28;20620;-75
2021/09/13 16:18:34;;;;;;;3.27;3.07;;;24.40;99.90;;;;;;5034951;28;20596;-75
2021/09/13 16:21:00;;;;;;;3.10;2.90;;;24.40;99.90;;;;;;5034935;28;20232;-75
2021/09/13 16:23:26;;;;;;;3.43;3.10;;;24.30;99.90;;;;;;5034814;28;20170;-75
2021/09/13 16:25:54;;;;;;;3.07;2.90;;;24.30;99.90;;;;;;5034701;28;20194;-75
2021/09/13 16:28:20;;;;;;;3.23;3.10;;;24.30;99.90;;;;;;5034358;28;20405;-75
2021/09/13 16:30:45;;;;;;;3.00;2.77;;;24.20;99.90;;;;;;5035067;28;20501;-73
2021/09/13 16:33:11;;;;;;;8.07;7.37;;;24.20;99.90;;;;;;5045736;28;20169;-73
2021/09/13 16:35:39;;;;;;;3.60;3.37;;;24.10;99.90;;;;;;5054360;28;20681;-74
2021/09/13 16:38:06;;;;;;;2.60;2.40;;;24.00;99.90;;;;;;5053878;28;20597;-73
2021/09/13 16:40:31;;;;;;;3.03;2.80;;;24.00;99.90;;;;;;5054128;28;20423;-73
2021/09/13 16:42:57;;;;;;;3.60;2.90;;;24.00;99.90;;;;;;5052022;28;20424;-74
2021/09/13 16:45:23;;;;;;;5.07;3.43;;;23.90;99.90;;;;;;5034309;28;20685;-76
2021/09/13 16:47:48;;;;;;;3.60;3.30;;;23.90;99.90;;;;;;5034738;28;20261;-79
2021/09/13 16:50:14;;;;;;;2.90;2.70;;;23.90;99.90;;;;;;5035708;28;20694;-78
2021/09/13 16:52:39;;;;;;;6.43;2.90;;;23.90;99.90;;;;;;5034579;28;20190;-79
2021/09/13 16:55:05;;;;;;;5.23;3.47;;;23.80;99.90;;;;;;5016738;28;20201;-79
2021/09/13 16:57:31;;;;;;;3.63;2.90;;;23.70;99.90;;;;;;5033791;28;20663;-78
2021/09/13 16:59:56;;;;;;;3.50;3.20;;;23.70;99.90;;;;;;5034896;28;20717;-78
2021/09/13 17:02:22;;;;;;;4.93;3.40;;;23.60;99.90;;;;;;5034172;28;20194;-79
2021/09/13 17:04:47;;;;;;;4.30;3.20;;;23.50;99.90;;;;;;5034259;28;20196;-79
2021/09/13 17:07:13;;;;;;;4.37;3.70;;;23.50;99.90;;;;;;5034263;28;20241;-79
2021/09/13 17:09:39;;;;;;;3.90;3.60;;;23.40;99.90;;;;;;5036301;28;20518;-79
2021/09/13 17:12:05;;;;;;;5.57;3.10;;;23.40;99.90;;;;;;5036680;28;20194;-79
2021/09/13 17:14:31;;;;;;;2.93;2.70;;;23.30;99.90;;;;;;5035417;28;20166;-79
2021/09/13 17:16:56;;;;;;;3.00;2.80;;;23.30;99.90;;;;;;5034583;28;20174;-79
2021/09/13 17:19:23;;;;;;;3.67;3.37;;;23.20;99.90;;;;;;5034026;28;20413;-78
2021/09/13 17:21:49;;;;;;;4.10;3.80;;;23.10;99.90;;;;;;5033676;28;20198;-78